Time;durP1;ratioP1;P1;durP2;ratioP2;P2;SDS_P1;SDS_P2;PMS_P1;PMS_P2;Temp;Humidity;BMP_temperature;BMP_pressure;BME280_temperature;BME280_humidity;BME280_pressure;Samples;Min_cycle;Max_cycle;Signal;HPM_P1;HPM_P2
2022/07/18 00:00:10;;;;;;;;;;;;;;;18.34;100.00;147339.78;5010072;28;19952;-77
2022/07/18 00:02:37;;;;;;;;;;;;;;;18.37;100.00;147347.44;5010886;28;19917;-79
2022/07/18 00:05:03;;;;;;;;;;;;;;;18.38;100.00;147348.72;5010833;28;19965;-79
2022/07/18 00:07:28;;;;;;;;;;;;;;;18.33;100.00;125655.34;5010114;28;19956;-76
2022/07/18 00:09:53;;;;;;;;;;;;;;;18.34;100.00;110923.03;5010436;28;19928;-78
2022/07/18 00:12:18;;;;;;;;;;;;;;;18.26;100.00;102026.94;5010959;28;19920;-77
2022/07/18 00:14:44;;;;;;;;;;;;;;;18.19;100.00;93492.78;5010408;28;19920;-78
2022/07/18 00:17:09;;;;;;;;;;;;;;;18.06;100.00;93130.81;5025933;28;20393;-78
2022/07/18 00:19:34;;;;;;;;;;;;;;;18.02;100.00;76819.13;5014422;28;19924;-77
2022/07/18 00:22:00;;;;;;;;;;;;;;;18.00;100.00;69027.19;5013067;28;20011;-78
2022/07/18 00:24:26;;;;;;;;;;;;;;;18.07;100.00;72083.09;5013892;28;19990;-78
2022/07/18 00:26:51;;;;;;;;;;;;;;;18.04;100.00;85306.91;5014594;28;19916;-77
2022/07/18 00:29:17;;;;;;;;;;;;;;;18.07;100.00;93132.44;5013194;28;19912;-80
2022/07/18 00:31:42;;;;;;;;;;;;;;;18.04;100.00;97214.25;5013664;28;20438;-80
2022/07/18 00:34:07;;;;;;;;;;;;;;;18.08;100.00;101653.38;5013915;28;19913;-78
2022/07/18 00:36:32;;;;;;;;;;;;;;;18.04;100.00;99259.19;5013332;28;19924;-78
2022/07/18 00:38:58;;;;;;;;;;;;;;;18.07;100.00;101992.69;5013079;28;19920;-79
2022/07/18 00:41:24;;;;;;;;;;;;;;;18.04;100.00;100282.03;5013948;28;20346;-79
2022/07/18 00:43:49;;;;;;;;;;;;;;;18.03;100.00;101985.53;5012817;28;19928;-78
2022/07/18 00:46:14;;;;;;;;;;;;;;;18.02;100.00;95848.13;5013442;28;19917;-79
2022/07/18 00:48:40;;;;;;;;;;;;;;;18.01;100.00;96527.72;5031248;28;19952;-77
2022/07/18 00:51:06;;;;;;;;;;;;;;;18.01;100.00;98231.38;5012791;28;20342;-77
2022/07/18 00:53:31;;;;;;;;;;;;;;;17.97;100.00;101633.63;5031020;28;20341;-77
2022/07/18 00:55:56;;;;;;;;;;;;;;;17.89;100.00;113232.53;5031239;28;19966;-77
2022/07/18 00:58:22;;;;;;;;;;;;;;;17.90;100.00;125908.44;5030847;28;20373;-77
2022/07/18 01:03:38;;;;;;;;;;;;;;;17.83;100.00;136540.59;5007322;28;20308;-77
2022/07/18 01:06:04;;;;;;;;;;;;;;;17.82;100.00;139634.63;5013092;28;19919;-78
2022/07/18 01:08:29;;;;;;;;;;;;;;;17.79;100.00;147202.88;5013770;28;20367;-79
2022/07/18 01:10:54;;;;;;;;;;;;;;;17.77;100.00;147199.06;5012836;28;19917;-78
2022/07/18 01:13:20;;;;;;;;;;;;;;;17.75;100.00;147192.66;5030595;28;19909;-77
2022/07/18 01:15:45;;;;;;;;;;;;;;;17.74;100.00;147190.06;5013203;28;19921;-77
2022/07/18 01:18:10;;;;;;;;;;;;;;;17.67;100.00;147172.19;5030310;28;19936;-77
2022/07/18 01:20:36;;;;;;;;;;;;;;;17.62;100.00;147159.38;5013136;28;20000;-78
2022/07/18 01:23:01;;;;;;;;;;;;;;;17.50;100.00;147131.28;5012812;28;19999;-78
2022/07/18 01:25:27;;;;;;;;;;;;;;;17.54;100.00;147140.19;5016183;28;19917;-80
2022/07/18 01:27:52;;;;;;;;;;;;;;;17.53;100.00;147138.94;5016562;28;19913;-78
2022/07/18 01:30:18;;;;;;;;;;;;;;;17.50;100.00;147130.00;5016784;28;19913;-77
2022/07/18 01:32:43;;;;;;;;;;;;;;;17.50;100.00;147131.28;5016399;28;19913;-76
2022/07/18 01:35:10;;;;;;;;;;;;;;;17.51;100.00;147132.53;5016105;28;19913;-78
2022/07/18 01:37:35;;;;;;;;;;;;;;;17.44;100.00;147114.66;5033711;28;19952;-77
2022/07/18 01:40:01;;;;;;;;;;;;;;;17.47;100.00;147123.59;5015870;28;19967;-78
2022/07/18 01:42:26;;;;;;;;;;;;;;;17.46;100.00;147119.75;5016843;28;19912;-78
2022/07/18 01:44:51;;;;;;;;;;;;;;;17.47;100.00;147122.34;5016936;28;19909;-78
2022/07/18 01:47:16;;;;;;;;;;;;;;;17.44;100.00;147115.94;5015261;28;20012;-78
2022/07/18 01:49:42;;;;;;;;;;;;;;;17.44;100.00;147114.66;5017060;28;19913;-78
2022/07/18 01:52:08;;;;;;;;;;;;;;;17.47;100.00;147123.59;5015984;28;19916;-78
2022/07/18 01:54:35;;;;;;;;;;;;;;;17.45;100.00;147118.50;5015961;28;20456;-78
2022/07/18 01:57:01;;;;;;;;;;;;;;;17.42;100.00;147110.81;5014201;28;19920;-77
2022/07/18 01:59:26;;;;;;;;;;;;;;;17.43;100.00;147113.34;5016018;28;19913;-79
2022/07/18 02:01:52;;;;;;;;;;;;;;;17.37;100.00;147098.00;5016146;28;19913;-78
2022/07/18 02:04:17;;;;;;;;;;;;;;;17.37;100.00;147098.00;5016061;28;19913;-78
2022/07/18 02:06:43;;;;;;;;;;;;;;;17.25;100.00;117209.06;5033638;28;20330;-79
2022/07/18 02:09:08;;;;;;;;;;;;;;;17.17;100.00;76028.03;5016105;28;20460;-79
2022/07/18 02:11:34;;;;;;;;;;;;;;;17.07;100.00;54077.59;5015287;28;19959;-78
2022/07/18 02:13:59;;;;;;;;;;;;;;;16.89;100.00;32249.66;5015162;28;19917;-79
2022/07/18 02:16:25;;;;;;;;;;;;;;;16.83;100.00;15885.53;5012115;28;19921;-79
2022/07/18 02:18:50;;;;;;;;;;;;;;;16.79;100.00;7564.06;5012459;28;19914;-80
2022/07/18 02:21:16;;;;;;;;;;;;;;;16.66;100.00;-407.91;5012432;28;20052;-80
2022/07/18 02:23:42;;;;;;;;;;;;;;;16.54;100.00;-7036.19;5012188;28;19913;-79
2022/07/18 02:26:07;;;;;;;;;;;;;;;16.42;100.00;-12989.63;5012141;28;19913;-78
2022/07/18 02:28:32;;;;;;;;;;;;;;;16.44;100.00;-17283.81;5012993;28;20384;-77
2022/07/18 02:30:58;;;;;;;;;;;;;;;16.47;100.00;-17284.22;5012281;28;19920;-79
2022/07/18 02:33:23;;;;;;;;;;;;;;;16.51;100.00;-17284.91;5012141;28;20031;-78
2022/07/18 02:35:48;;;;;;;;;;;;;;;16.50;100.00;-18935.09;5011379;28;20397;-80
2022/07/18 02:38:13;;;;;;;;;;;;;;;16.49;100.00;-20914.53;5012014;28;20384;-79
2022/07/18 02:40:38;;;;;;;;;;;;;;;16.40;100.00;-23220.41;5013482;28;19967;-80
2022/07/18 02:43:04;;;;;;;;;;;;;;;16.24;100.00;-25524.13;5012029;28;19960;-77
2022/07/18 02:45:29;;;;;;;;;;;;;;;16.07;100.00;-25519.31;5011760;28;20401;-78
2022/07/18 02:47:55;;;;;;;;;;;;;;;15.96;100.00;-25516.41;5012376;28;20320;-77
2022/07/18 02:50:20;;;;;;;;;;;;;;;15.92;100.00;-25515.09;5011600;28;19920;-77
2022/07/18 02:52:45;;;;;;;;;;;;;;;15.97;100.00;-25516.56;5013098;28;19913;-78
2022/07/18 02:55:11;;;;;;;;;;;;;;;16.09;100.00;-25520.03;5011736;28;19956;-78
2022/07/18 02:57:37;;;;;;;;;;;;;;;16.17;100.00;-25522.06;5011689;28;20411;-78
2022/07/18 03:00:07;;;;;;;;;;;;;;;16.24;100.00;-25524.13;5011646;28;19944;-78
2022/07/18 03:02:32;;;;;;;;;;;;;;;16.31;100.00;-25526.28;5011298;28;19963;-77
2022/07/18 03:04:57;;;;;;;;;;;;;;;16.37;100.00;-25527.88;5011495;28;20389;-78
2022/07/18 03:07:23;;;;;;;;;;;;;;;16.45;100.00;-25530.06;5011597;28;19917;-77
2022/07/18 03:09:48;;;;;;;;;;;;;;;16.42;100.00;-24868.41;5011383;28;20366;-76
2022/07/18 03:12:13;;;;;;;;;;;;;;;16.39;100.00;-21901.59;5011377;28;20016;-78
2022/07/18 03:14:38;;;;;;;;;;;;;;;16.42;100.00;-19923.50;5011511;28;19914;-79
2022/07/18 03:17:04;;;;;;;;;;;;;;;16.48;100.00;-18274.66;5025325;28;19917;-77
2022/07/18 03:19:29;;;;;;;;;;;;;;;16.50;100.00;-16954.53;5014531;28;19971;-78
2022/07/18 03:21:54;;;;;;;;;;;;;;;16.50;100.00;-17614.91;5031871;28;20285;-77
2022/07/18 03:24:20;;;;;;;;;;;;;;;16.49;100.00;-18604.97;5014311;28;20387;-77
2022/07/18 03:26:45;;;;;;;;;;;;;;;16.40;100.00;-19263.28;5032445;28;19924;-77
2022/07/18 03:29:11;;;;;;;;;;;;;;;16.40;100.00;-17613.28;5013953;28;20424;-79
2022/07/18 03:31:36;;;;;;;;;;;;;;;16.46;100.00;-15633.03;5032472;28;19913;-77
2022/07/18 03:34:02;;;;;;;;;;;;;;;16.40;100.00;-13650.34;5014017;28;19920;-77
2022/07/18 03:36:27;;;;;;;;;;;;;;;16.37;100.00;-11997.66;5031531;28;19960;-77
2022/07/18 03:38:52;;;;;;;;;;;;;;;16.31;100.00;-10675.00;5014675;28;19920;-77
2022/07/18 03:41:18;;;;;;;;;;;;;;;16.25;100.00;-10013.47;5014110;28;19913;-79
2022/07/18 03:43:43;;;;;;;;;;;;;;;16.27;100.00;-9682.84;5014101;28;19913;-79
2022/07/18 03:46:09;;;;;;;;;;;;;;;16.32;100.00;-9352.31;5031809;28;19959;-77
2022/07/18 03:48:35;;;;;;;;;;;;;;;16.28;100.00;-9021.47;5031664;28;19964;-78
2022/07/18 03:51:00;;;;;;;;;;;;;;;16.27;100.00;-9352.16;5013262;28;20384;-78
2022/07/18 03:53:25;;;;;;;;;;;;;;;16.26;100.00;-9682.84;5014425;28;19919;-77
2022/07/18 03:55:51;;;;;;;;;;;;;;;16.29;100.00;-9352.22;5014436;28;19913;-76
2022/07/18 03:58:16;;;;;;;;;;;;;;;16.24;100.00;-9021.38;5013603;28;19920;-78
2022/07/18 04:00:41;;;;;;;;;;;;;;;16.25;100.00;-8690.63;5013886;28;19913;-79
2022/07/18 04:03:07;;;;;;;;;;;;;;;16.31;100.00;-8690.75;5031473;28;20266;-79
2022/07/18 04:05:32;;;;;;;;;;;;;;;16.27;100.00;-8359.88;5013533;28;20325;-79
2022/07/18 04:07:57;;;;;;;;;;;;;;;16.33;100.00;-8029.09;5013564;28;19917;-80
2022/07/18 04:10:23;;;;;;;;;;;;;;;16.51;100.00;-6042.97;5031891;28;19919;-77
2022/07/18 04:12:49;;;;;;;;;;;;;;;16.63;100.00;-3060.81;5013537;28;19917;-78
2022/07/18 04:15:15;;;;;;;;;;;;;;;16.70;100.00;587.78;5013174;28;19917;-79
2022/07/18 04:17:40;;;;;;;;;;;;;;;16.95;100.00;5240.78;5010865;28;19956;-79
2022/07/18 04:20:06;;;;;;;;;;;;;;;17.81;100.00;10253.19;5009611;28;20262;-80
2022/07/18 04:22:31;;;;;;;;;;;;;;;18.45;100.00;35033.03;5010313;28;19913;-79
2022/07/18 04:24:56;;;;;;;;;;;;;;;19.47;100.00;61414.88;5010644;28;20266;-79
2022/07/18 04:27:22;;;;;;;;;;;;;;;20.39;100.00;131610.38;5010310;28;20017;-80
2022/07/18 04:29:47;;;;;;;;;;;;;;;21.19;100.00;148048.03;5010458;28;20378;-79
2022/07/18 04:32:12;;;;;;;;;;;;;;;21.98;100.00;148245.53;5010211;28;20487;-78
2022/07/18 04:34:37;;;;;;;;;;;;;;;22.90;100.00;148476.50;5009789;28;20369;-81
2022/07/18 04:37:03;;;;;;;;;;;;;;;23.11;100.00;148527.88;5009997;28;19914;-79
2022/07/18 04:39:28;;;;;;;;;;;;;;;23.53;100.00;148631.88;5009915;28;19913;-80
2022/07/18 04:41:53;;;;;;;;;;;;;;;23.78;100.00;148696.03;5010022;28;19914;-78
2022/07/18 04:44:18;;;;;;;;;;;;;;;23.86;100.00;148714.06;5009849;28;19955;-80
2022/07/18 04:46:44;;;;;;;;;;;;;;;24.00;100.00;148750.03;5009786;28;19967;-81
2022/07/18 04:49:09;;;;;;;;;;;;;;;24.61;100.00;148902.94;5010103;28;19913;-79
2022/07/18 04:51:34;;;;;;;;;;;;;;;24.63;100.00;148908.06;5011438;28;19918;-80
2022/07/18 04:54:00;;;;;;;;;;;;;;;24.79;100.00;148947.88;5009459;28;19913;-80
2022/07/18 04:56:25;;;;;;;;;;;;;;;24.89;100.00;148973.59;5011613;28;20011;-79
2022/07/18 04:58:50;;;;;;;;;;;;;;;24.71;100.00;148928.59;5011663;28;20358;-80
2022/07/18 05:01:15;;;;;;;;;;;;;;;23.93;100.00;148732.06;5013834;28;20362;-80
2022/07/18 05:03:41;;;;;;;;;;;;;;;23.33;100.00;148581.78;5014454;28;19913;-80
2022/07/18 05:06:06;;;;;;;;;;;;;;;22.64;100.00;148409.75;5013518;28;19913;-81
2022/07/18 05:08:31;;;;;;;;;;;;;;;22.59;100.00;148399.53;5014181;28;19921;-82
2022/07/18 05:10:56;;;;;;;;;;;;;;;23.18;100.00;148544.56;5013667;28;19914;-78
2022/07/18 05:13:22;;;;;;;;;;;;;;;23.52;100.00;148629.28;5014877;28;19953;-77
2022/07/18 05:15:47;;;;;;;;;;;;;;;23.45;100.00;148612.59;5012993;28;19924;-78
2022/07/18 05:18:12;;;;;;;;;;;;;;;23.26;100.00;148566.41;5012756;28;19917;-78
2022/07/18 05:20:38;;;;;;;;;;;;;;;23.30;100.00;148576.69;5014350;28;20431;-79
2022/07/18 05:23:03;;;;;;;;;;;;;;;23.58;100.00;148644.69;5012352;28;19971;-79
2022/07/18 05:25:28;;;;;;;;;;;;;;;23.43;100.00;148607.44;5013064;28;20355;-78
2022/07/18 05:27:54;;;;;;;;;;;;;;;22.75;100.00;148439.28;5013218;28;20063;-78
2022/07/18 05:30:19;;;;;;;;;;;;;;;22.39;100.00;148349.47;5012651;28;19914;-80
2022/07/18 05:32:45;;;;;;;;;;;;;;;21.98;100.00;148246.81;5013209;28;19925;-78
2022/07/18 05:35:11;;;;;;;;;;;;;;;22.44;100.00;148361.03;5012945;28;20125;-79
2022/07/18 05:37:37;;;;;;;;;;;;;;;22.24;100.00;148310.94;5012774;28;19920;-79
2022/07/18 05:40:04;;;;;;;;;;;;;;;21.88;100.00;148221.19;5014363;28;19913;-77
2022/07/18 05:42:29;;;;;;;;;;;;;;;21.77;100.00;148193.00;5013343;28;19914;-78
2022/07/18 05:44:55;;;;;;;;;;;;;;;21.27;100.00;148068.53;5012774;28;19913;-78
2022/07/18 05:47:20;;;;;;;;;;;;;;;21.30;100.00;148076.22;5014289;28;19917;-79
2022/07/18 05:49:45;;;;;;;;;;;;;;;21.18;100.00;148046.78;5012394;28;19917;-79
2022/07/18 05:52:11;;;;;;;;;;;;;;;21.19;100.00;148048.03;5013262;28;19914;-82
2022/07/18 05:54:36;;;;;;;;;;;;;;;21.44;100.00;148110.84;5012863;28;20401;-81
2022/07/18 05:57:01;;;;;;;;;;;;;;;21.52;100.00;148132.69;5012097;28;19932;-80
2022/07/18 05:59:26;;;;;;;;;;;;;;;21.64;100.00;148160.91;5014310;28;19957;-81
2022/07/18 06:01:52;;;;;;;;;;;;;;;21.82;100.00;148207.06;5012651;28;19913;-81
2022/07/18 06:04:17;;;;;;;;;;;;;;;21.55;100.00;148139.13;5012274;28;20328;-77
2022/07/18 06:06:43;;;;;;;;;;;;;;;21.75;100.00;148189.13;5012872;28;19909;-77
2022/07/18 06:09:08;;;;;;;;;;;;;;;21.58;100.00;148146.81;5012199;28;20374;-76
2022/07/18 06:11:33;;;;;;;;;;;;;;;21.49;100.00;148123.75;5011904;28;19913;-77
2022/07/18 06:13:59;;;;;;;;;;;;;;;22.01;100.00;148253.22;5012641;28;20365;-77
2022/07/18 06:16:26;;;;;;;;;;;;;;;22.33;100.00;148332.81;5009592;28;19918;-78
2022/07/18 06:18:52;;;;;;;;;;;;;;;21.81;100.00;148203.22;5011859;28;19924;-77
2022/07/18 06:21:17;;;;;;;;;;;;;;;21.38;100.00;148095.47;5011684;28;19921;-78
2022/07/18 06:23:43;;;;;;;;;;;;;;;21.69;100.00;148173.75;5012197;28;19914;-76
2022/07/18 06:26:08;;;;;;;;;;;;;;;21.90;100.00;148226.28;5011441;28;19952;-80
2022/07/18 06:28:34;;;;;;;;;;;;;;;21.91;100.00;148227.56;5011975;28;19956;-79
2022/07/18 06:31:00;;;;;;;;;;;;;;;22.00;100.00;148250.66;5011953;28;19919;-79
2022/07/18 06:33:25;;;;;;;;;;;;;;;21.88;100.00;148222.44;5011365;28;19939;-80
2022/07/18 06:35:50;;;;;;;;;;;;;;;21.57;100.00;148142.97;5012590;28;20295;-79
2022/07/18 06:38:16;;;;;;;;;;;;;;;22.07;100.00;148268.63;4995771;28;19917;-80
2022/07/18 06:40:42;;;;;;;;;;;;;;;21.88;100.00;148221.19;5011956;28;19920;-81
2022/07/18 06:43:08;;;;;;;;;;;;;;;22.16;100.00;148290.44;5012769;28;19917;-81
2022/07/18 06:45:33;;;;;;;;;;;;;;;22.32;100.00;148331.50;5012207;28;19914;-79
2022/07/18 06:47:58;;;;;;;;;;;;;;;22.54;100.00;148385.41;5012252;28;19981;-77
2022/07/18 06:50:24;;;;;;;;;;;;;;;22.72;100.00;148430.31;5011975;28;20361;-81
2022/07/18 06:52:49;;;;;;;;;;;;;;;23.48;100.00;148621.56;5012051;28;19913;-80
2022/07/18 06:55:14;;;;;;;;;;;;;;;24.33;100.00;148833.53;5011448;28;20378;-80
2022/07/18 06:57:40;;;;;;;;;;;;;;;24.42;100.00;148854.06;5011729;28;19913;-82
2022/07/18 07:00:08;;;;;;;;;;;;;;;24.41;100.00;148851.47;5011315;28;19924;-81
2022/07/18 07:02:33;;;;;;;;;;;;;;;23.46;100.00;148615.16;5011949;28;19917;-82
2022/07/18 07:04:59;;;;;;;;;;;;;;;23.20;100.00;148551.00;5012045;28;19920;-81
2022/07/18 07:07:25;;;;;;;;;;;;;;;23.27;100.00;148567.66;5011299;28;20004;-81
2022/07/18 07:09:51;;;;;;;;;;;;;;;23.11;100.00;148527.88;5012179;28;19921;-81
2022/07/18 07:12:16;;;;;;;;;;;;;;;23.58;100.00;148645.94;5011171;28;19921;-81
2022/07/18 07:14:41;;;;;;;;;;;;;;;23.94;100.00;148735.91;5011387;28;19914;-81
2022/07/18 07:17:07;;;;;;;;;;;;;;;24.45;100.00;148861.75;5011402;28;19921;-81
2022/07/18 07:19:32;;;;;;;;;;;;;;;25.17;100.00;149043.00;5012272;28;19940;-78
2022/07/18 07:21:57;;;;;;;;;;;;;;;25.40;100.00;149099.56;5010375;28;20004;-81
2022/07/18 07:24:22;;;;;;;;;;;;;;;26.10;100.00;149275.78;5011603;28;20299;-83
2022/07/18 07:26:48;;;;;;;;;;;;;;;27.45;100.00;149612.88;5012445;28;19953;-81
2022/07/18 07:29:14;;;;;;;;;;;;;;;28.23;100.00;149808.63;5010893;28;19917;-83
2022/07/18 07:31:40;;;;;;;;;;;;;;;27.85;100.00;149712.00;5010946;28;19916;-82
2022/07/18 07:34:05;;;;;;;;;;;;;;;28.18;100.00;149794.44;5012420;28;19913;-82
2022/07/18 07:36:30;;;;;;;;;;;;;;;29.42;100.00;150104.97;5010854;28;19913;-81
2022/07/18 07:38:56;;;;;;;;;;;;;;;29.66;100.00;150166.81;5011763;28;20426;-83
2022/07/18 07:41:21;;;;;;;;;;;;;;;30.57;100.00;150393.75;5012725;28;19913;-78
2022/07/18 07:43:47;;;;;;;;;;;;;;;30.80;100.00;150451.78;5010484;28;19999;-79
2022/07/18 07:46:12;;;;;;;;;;;;;;;29.83;100.00;150209.41;5010527;28;20409;-79
2022/07/18 07:48:38;;;;;;;;;;;;;;;29.87;100.00;150218.41;5010475;28;19913;-79
2022/07/18 07:51:03;;;;;;;;;;;;;;;31.25;100.00;150564.06;5009936;28;19942;-80
2022/07/18 07:53:29;;;;;;;;;;;;;;;31.65;100.00;150666.00;5010283;28;20317;-79
2022/07/18 07:55:54;;;;;;;;;;;;;;;31.23;100.00;150558.88;5011680;28;19984;-79
2022/07/18 07:58:19;;;;;;;;;;;;;;;31.36;100.00;150592.41;5010159;28;19913;-79
2022/07/18 08:00:44;;;;;;;;;;;;;;;32.17;100.00;150796.34;5010495;28;19917;-79
2022/07/18 08:03:10;;;;;;;;;;;;;;;32.28;100.00;150823.47;5009526;28;19910;-79
2022/07/18 08:05:38;;;;;;;;;;;;;;;32.39;100.00;150851.84;5009879;28;19949;-79
2022/07/18 08:08:04;;;;;;;;;;;;;;;31.39;98.28;150600.16;5009883;28;20012;-78
2022/07/18 08:10:30;;;;;;;;;;;;;;;32.99;91.30;151001.66;5011183;28;19929;-79
2022/07/18 08:12:55;;;;;;;;;;;;;;;33.49;75.34;151125.69;5009900;28;20413;-79
2022/07/18 08:15:21;;;;;;;;;;;;;;;33.30;76.22;151077.88;5009927;28;19966;-81
2022/07/18 08:17:46;;;;;;;;;;;;;;;33.41;74.36;151106.31;5008969;28;20373;-78
2022/07/18 08:20:12;;;;;;;;;;;;;;;32.36;75.99;150844.09;5011465;28;20019;-78
2022/07/18 08:22:51;;;;;;;;;;;;;;;32.54;73.25;150888.03;5009544;28;20011;-79
2022/07/18 08:25:18;;;;;;;;;;;;;;;31.90;79.97;150727.94;5009987;28;19952;-80
2022/07/18 08:27:43;;;;;;;;;;;;;;;32.38;75.95;150847.97;5010345;28;19914;-80
2022/07/18 08:30:08;;;;;;;;;;;;;;;32.77;75.89;150944.84;5009350;28;19909;-79
2022/07/18 08:32:33;;;;;;;;;;;;;;;32.19;74.00;150800.22;5009888;28;19921;-79
2022/07/18 08:34:59;;;;;;;;;;;;;;;32.03;87.02;150760.19;5014021;28;19914;-83
2022/07/18 08:37:24;;;;;;;;;;;;;;;31.88;78.85;150722.75;5014624;28;19971;-82
2022/07/18 08:39:49;;;;;;;;;;;;;;;32.19;76.10;150801.56;5014153;28;20380;-84
2022/07/18 08:42:16;;;;;;;;;;;;;;;32.59;80.74;150899.63;5013695;28;19975;-84
2022/07/18 08:44:41;;;;;;;;;;;;;;;31.65;77.69;150664.69;5014599;28;19923;-83
2022/07/18 08:47:07;;;;;;;;;;;;;;;32.17;78.12;150796.34;5012672;28;19913;-82
2022/07/18 08:49:33;;;;;;;;;;;;;;;32.03;81.80;150760.19;5013648;28;19983;-81
2022/07/18 08:51:59;;;;;;;;;;;;;;;31.79;83.30;150700.84;5013668;28;20198;-82
2022/07/18 08:54:24;;;;;;;;;;;;;;;31.26;90.28;150567.94;5013281;28;19955;-82
2022/07/18 08:56:50;;;;;;;;;;;;;;;31.71;86.70;150680.16;5013947;28;19920;-82
2022/07/18 08:59:15;;;;;;;;;;;;;;;32.01;80.81;150755.03;5013629;28;19925;-81
2022/07/18 09:01:41;;;;;;;;;;;;;;;31.80;82.07;150703.41;5014653;28;20309;-81
2022/07/18 09:04:16;;;;;;;;;;;;;;;32.36;84.30;150844.09;5013113;28;19921;-82
2022/07/18 09:06:46;;;;;;;;;;;;;;;32.86;69.75;150968.06;5014549;28;19960;-79
2022/07/18 09:09:12;;;;;;;;;;;;;;;32.45;76.79;150866.06;5015435;28;20366;-82
2022/07/18 09:11:48;;;;;;;;;;;;;;;32.68;72.03;150922.91;5013742;28;19965;-82
2022/07/18 09:14:29;;;;;;;;;;;;;;;32.60;76.93;150903.50;5013079;28;19924;-82
2022/07/18 09:17:05;;;;;;;;;;;;;;;32.93;75.95;150987.44;5024796;28;20020;-80
2022/07/18 09:19:30;;;;;;;;;;;;;;;32.92;86.43;150983.56;5017132;28;19913;-81
2022/07/18 09:22:11;;;;;;;;;;;;;;;32.54;74.87;150888.03;5016130;28;19917;-81
2022/07/18 09:24:56;;;;;;;;;;;;;;;32.06;75.96;150766.66;5016546;28;20349;-80
2022/07/18 09:27:26;;;;;;;;;;;;;;;32.81;76.40;150955.19;5034135;28;19917;-82
2022/07/18 09:30:11;;;;;;;;;;;;;;;32.49;82.68;150876.41;5016371;28;20014;-80
2022/07/18 09:32:37;;;;;;;;;;;;;;;32.71;68.39;150930.66;5016068;28;19913;-82
2022/07/18 09:35:10;;;;;;;;;;;;;;;32.42;76.07;150858.31;5015738;28;20032;-79
2022/07/18 09:37:36;;;;;;;;;;;;;;;32.17;75.35;150796.34;5016522;28;20334;-81
2022/07/18 09:40:20;;;;;;;;;;;;;;;32.41;71.65;150855.72;5015628;28;19913;-79
2022/07/18 09:42:49;;;;;;;;;;;;;;;31.22;81.81;150556.31;5034644;28;19913;-79
2022/07/18 09:45:14;;;;;;;;;;;;;;;31.98;82.70;150748.56;5014907;28;19960;-79
2022/07/18 09:47:59;;;;;;;;;;;;;;;31.60;89.94;150651.78;5033649;28;19967;-79
2022/07/18 09:50:26;;;;;;;;;;;;;;;32.00;74.59;150753.72;5015786;28;20451;-78
2022/07/18 09:53:02;;;;;;;;;;;;;;;31.97;80.49;150744.69;5033630;28;19939;-79
2022/07/18 09:55:28;;;;;;;;;;;;;;;31.39;79.86;150600.16;5016380;28;19923;-79
2022/07/18 09:57:57;;;;;;;;;;;;;;;31.13;80.68;150535.66;5032964;28;19913;-79
2022/07/18 10:00:23;;;;;;;;;;;;;;;31.48;78.55;150622.09;5018019;28;20011;-79
2022/07/18 10:02:49;;;;;;;;;;;;;;;31.14;80.89;150536.97;5017875;28;20349;-80
2022/07/18 10:05:15;;;;;;;;;;;;;;;31.14;84.41;150538.25;5016822;28;19917;-80
2022/07/18 10:07:40;;;;;;;;;;;;;;;31.14;86.32;150536.97;5017644;28;19935;-80
2022/07/18 10:10:06;;;;;;;;;;;;;;;31.45;80.66;150615.63;5017242;28;19917;-79
2022/07/18 10:12:31;;;;;;;;;;;;;;;31.61;77.12;150655.66;5016541;28;19925;-78
2022/07/18 10:14:56;;;;;;;;;;;;;;;31.68;74.53;150672.41;5015891;28;19913;-78
2022/07/18 10:17:23;;;;;;;;;;;;;;;31.35;80.40;150589.81;5011556;28;19929;-77
2022/07/18 10:19:48;;;;;;;;;;;;;;;31.22;79.98;150556.31;5012544;28;20274;-77
2022/07/18 10:22:14;;;;;;;;;;;;;;;31.56;85.36;150642.78;5013418;28;19925;-77
2022/07/18 10:24:40;;;;;;;;;;;;;;;31.49;77.16;150625.97;5012224;28;20298;-77
2022/07/18 10:27:31;;;;;;;;;;;;;;;31.27;79.25;150569.19;5012364;28;19975;-78
2022/07/18 10:30:06;;;;;;;;;;;;;;;31.05;88.82;150513.75;5004639;28;19913;-78
2022/07/18 10:32:33;;;;;;;;;;;;;;;31.23;89.51;150560.19;5012164;28;19913;-77
2022/07/18 10:34:58;;;;;;;;;;;;;;;31.38;89.68;150597.56;5012103;28;19960;-78
2022/07/18 10:37:25;;;;;;;;;;;;;;;31.43;86.71;150609.16;5012578;28;19918;-77
2022/07/18 10:39:50;;;;;;;;;;;;;;;31.43;96.53;150610.50;5012188;28;19967;-77
2022/07/18 10:42:18;;;;;;;;;;;;;;;31.55;89.31;150638.91;5011853;28;20278;-78
2022/07/18 10:44:44;;;;;;;;;;;;;;;31.98;75.19;150747.31;5012589;28;19944;-78
2022/07/18 10:47:12;;;;;;;;;;;;;;;31.13;91.26;150535.66;5011595;28;19980;-79
2022/07/18 10:49:46;;;;;;;;;;;;;;;31.37;91.12;150593.69;5012331;28;20011;-77
2022/07/18 10:52:33;;;;;;;;;;;;;;;31.53;87.59;150633.72;5045115;28;20347;-77
2022/07/18 10:55:01;;;;;;;;;;;;;;;31.48;81.73;150623.38;5013262;28;19913;-79
2022/07/18 10:57:26;;;;;;;;;;;;;;;31.48;82.97;150623.38;5044160;28;19968;-78
2022/07/18 11:00:13;;;;;;;;;;;;;;;31.26;95.59;150566.59;5013158;28;19917;-79
2022/07/18 11:02:46;;;;;;;;;;;;;;;31.41;82.18;150604.03;5011907;28;19940;-78
2022/07/18 11:05:27;;;;;;;;;;;;;;;31.33;75.61;150584.69;5011985;28;19964;-78
2022/07/18 11:08:01;;;;;;;;;;;;;;;31.43;80.97;150609.16;5044761;28;19910;-78
2022/07/18 11:10:46;;;;;;;;;;;;;;;31.68;60.46;150672.41;5044708;28;19932;-78
2022/07/18 11:13:34;;;;;;;;;;;;;;;31.69;73.01;150675.03;5012487;28;19909;-78
2022/07/18 11:16:18;;;;;;;;;;;;;;;31.94;69.54;150738.22;5016013;28;19917;-79
2022/07/18 11:18:43;;;;;;;;;;;;;;;31.42;64.55;150607.91;5047815;28;20357;-78
2022/07/18 11:21:16;;;;;;;;;;;;;;;31.11;65.91;150530.50;5014068;28;19920;-77
2022/07/18 11:23:43;;;;;;;;;;;;;;;31.68;64.91;150673.75;5014291;28;20047;-77
2022/07/18 11:26:13;;;;;;;;;;;;;;;31.60;77.59;150653.13;5014075;28;19913;-78
2022/07/18 11:28:39;;;;;;;;;;;;;;;31.26;73.90;150566.59;5014492;28;19916;-77
2022/07/18 11:31:06;;;;;;;;;;;;;;;31.35;59.22;150588.53;5013810;28;19912;-77
2022/07/18 11:33:34;;;;;;;;;;;;;;;31.79;55.60;150699.53;5014557;28;19913;-77
2022/07/18 11:36:03;;;;;;;;;;;;;;;31.90;62.15;150727.94;5031834;28;19913;-78
2022/07/18 11:38:28;;;;;;;;;;;;;;;32.32;55.00;150833.81;5014714;28;19952;-79
2022/07/18 11:40:53;;;;;;;;;;;;;;;32.64;54.78;150912.53;5014971;28;20210;-80
2022/07/18 11:43:23;;;;;;;;;;;;;;;32.36;64.33;150844.09;4998395;28;20407;-78
2022/07/18 11:45:48;;;;;;;;;;;;;;;32.38;61.94;150847.97;5032420;28;20016;-80
2022/07/18 11:48:20;;;;;;;;;;;;;;;31.99;65.44;150751.16;5014987;28;19992;-77
2022/07/18 11:50:45;;;;;;;;;;;;;;;32.49;58.94;150876.41;5014572;28;19917;-78
2022/07/18 11:53:11;;;;;;;;;;;;;;;32.23;65.61;150810.56;5013781;28;19913;-80
2022/07/18 11:55:37;;;;;;;;;;;;;;;32.63;61.28;150911.25;5013362;28;19956;-79
2022/07/18 11:58:11;;;;;;;;;;;;;;;32.82;53.13;150959.06;5031878;28;19913;-77
2022/07/18 12:00:37;;;;;;;;;;;;;;;32.60;54.44;150903.50;5014057;28;19959;-80
2022/07/18 12:03:09;;;;;;;;;;;;;;;32.69;55.72;150925.47;5031638;28;19913;-79
2022/07/18 12:05:40;;;;;;;;;;;;;;;32.34;56.06;150837.69;5014757;28;20396;-79
2022/07/18 12:08:24;;;;;;;;;;;;;;;32.52;52.85;150882.81;5033341;28;19966;-77
2022/07/18 12:11:05;;;;;;;;;;;;;;;32.67;52.39;150921.59;5049793;28;19913;-78
2022/07/18 12:13:39;;;;;;;;;;;;;;;32.33;55.33;150836.41;5017870;28;19913;-77
2022/07/18 12:16:05;;;;;;;;;;;;;;;31.81;48.75;150704.72;5017267;28;19917;-77
2022/07/18 12:18:32;;;;;;;;;;;;;;;32.22;62.05;150807.97;5016473;28;19921;-80
2022/07/18 12:21:10;;;;;;;;;;;;;;;32.28;56.57;150822.19;5033419;28;19920;-79
2022/07/18 12:23:36;;;;;;;;;;;;;;;32.66;48.31;150917.72;5015724;28;19921;-80
2022/07/18 12:26:01;;;;;;;;;;;;;;;32.40;51.22;150853.16;5016086;28;20173;-80
2022/07/18 12:28:27;;;;;;;;;;;;;;;32.33;56.00;150835.09;5033794;28;19913;-79
2022/07/18 12:30:53;;;;;;;;;;;;;;;32.65;50.34;150915.19;5015412;28;20421;-79